sensor_id;sensor_type;location;lat;lon;timestamp;P1;durP1;ratioP1;P2;durP2;ratioP2
54745;SDS011;40640;48.130;11.356;2023-04-03T00:02:00;8.65;;;5.57;;
54745;SDS011;40640;48.130;11.356;2023-04-03T00:06:04;8.35;;;6.07;;
54745;SDS011;40640;48.130;11.356;2023-04-03T00:10:08;11.32;;;5.72;;
54745;SDS011;40640;48.130;11.356;2023-04-03T00:14:12;8.43;;;5.97;;
54745;SDS011;40640;48.130;11.356;2023-04-03T00:18:15;11.43;;;5.97;;
54745;SDS011;40640;48.130;11.356;2023-04-03T00:22:18;8.68;;;5.63;;
54745;SDS011;40640;48.130;11.356;2023-04-03T00:26:21;7.00;;;5.60;;
54745;SDS011;40640;48.130;11.356;2023-04-03T00:30:25;13.00;;;5.93;;
54745;SDS011;40640;48.130;11.356;2023-04-03T00:34:28;9.40;;;5.18;;
54745;SDS011;40640;48.130;11.356;2023-04-03T00:38:31;11.70;;;5.35;;
54745;SDS011;40640;48.130;11.356;2023-04-03T00:42:35;11.90;;;5.60;;
54745;SDS011;40640;48.130;11.356;2023-04-03T00:46:40;10.63;;;5.57;;
54745;SDS011;40640;48.130;11.356;2023-04-03T00:50:43;8.40;;;5.68;;
54745;SDS011;40640;48.130;11.356;2023-04-03T00:54:49;8.18;;;5.47;;
54745;SDS011;40640;48.130;11.356;2023-04-03T00:58:55;7.28;;;5.10;;
54745;SDS011;40640;48.130;11.356;2023-04-03T01:03:03;7.80;;;5.10;;
54745;SDS011;40640;48.130;11.356;2023-04-03T01:07:07;9.15;;;5.28;;
54745;SDS011;40640;48.130;11.356;2023-04-03T01:11:12;7.65;;;4.90;;
54745;SDS011;40640;48.130;11.356;2023-04-03T01:15:16;8.32;;;5.22;;
54745;SDS011;40640;48.130;11.356;2023-04-03T01:19:22;7.88;;;4.95;;
54745;SDS011;40640;48.130;11.356;2023-04-03T01:23:32;7.35;;;5.13;;
54745;SDS011;40640;48.130;11.356;2023-04-03T01:27:46;6.47;;;4.80;;
54745;SDS011;40640;48.130;11.356;2023-04-03T01:31:52;5.65;;;4.57;;
54745;SDS011;40640;48.130;11.356;2023-04-03T01:35:55;8.88;;;4.68;;
54745;SDS011;40640;48.130;11.356;2023-04-03T01:39:59;7.45;;;4.85;;
54745;SDS011;40640;48.130;11.356;2023-04-03T01:44:02;6.00;;;4.40;;
54745;SDS011;40640;48.130;11.356;2023-04-03T01:48:07;7.70;;;4.53;;
54745;SDS011;40640;48.130;11.356;2023-04-03T01:52:10;7.07;;;4.63;;
54745;SDS011;40640;48.130;11.356;2023-04-03T01:56:13;6.15;;;4.25;;
54745;SDS011;40640;48.130;11.356;2023-04-03T02:00:16;7.60;;;4.70;;
54745;SDS011;40640;48.130;11.356;2023-04-03T02:04:21;7.97;;;4.60;;
54745;SDS011;40640;48.130;11.356;2023-04-03T02:08:24;6.32;;;4.25;;
54745;SDS011;40640;48.130;11.356;2023-04-03T02:12:27;12.02;;;4.07;;
54745;SDS011;40640;48.130;11.356;2023-04-03T02:16:30;7.55;;;4.50;;
54745;SDS011;40640;48.130;11.356;2023-04-03T02:20:34;5.22;;;3.92;;
54745;SDS011;40640;48.130;11.356;2023-04-03T02:24:37;7.35;;;4.13;;
54745;SDS011;40640;48.130;11.356;2023-04-03T02:28:41;6.80;;;4.32;;
54745;SDS011;40640;48.130;11.356;2023-04-03T02:32:44;6.63;;;4.70;;
54745;SDS011;40640;48.130;11.356;2023-04-03T02:36:49;7.35;;;4.28;;
54745;SDS011;40640;48.130;11.356;2023-04-03T02:40:53;6.43;;;4.57;;
54745;SDS011;40640;48.130;11.356;2023-04-03T02:44:56;5.63;;;4.43;;
54745;SDS011;40640;48.130;11.356;2023-04-03T02:49:01;5.30;;;3.97;;
54745;SDS011;40640;48.130;11.356;2023-04-03T02:53:06;8.10;;;4.00;;
54745;SDS011;40640;48.130;11.356;2023-04-03T02:57:09;6.40;;;4.10;;
54745;SDS011;40640;48.130;11.356;2023-04-03T03:01:12;4.80;;;3.75;;
54745;SDS011;40640;48.130;11.356;2023-04-03T03:05:16;4.55;;;3.92;;
54745;SDS011;40640;48.130;11.356;2023-04-03T03:09:21;6.38;;;4.15;;
54745;SDS011;40640;48.130;11.356;2023-04-03T03:13:24;4.72;;;3.67;;
54745;SDS011;40640;48.130;11.356;2023-04-03T03:17:27;6.28;;;3.80;;
54745;SDS011;40640;48.130;11.356;2023-04-03T03:21:30;6.25;;;3.83;;
54745;SDS011;40640;48.130;11.356;2023-04-03T03:25:34;5.28;;;3.40;;
54745;SDS011;40640;48.130;11.356;2023-04-03T03:29:41;5.85;;;3.53;;
54745;SDS011;40640;48.130;11.356;2023-04-03T03:33:45;5.50;;;3.55;;
54745;SDS011;40640;48.130;11.356;2023-04-03T03:37:47;5.22;;;2.92;;
54745;SDS011;40640;48.130;11.356;2023-04-03T03:41:52;7.13;;;3.40;;
54745;SDS011;40640;48.130;11.356;2023-04-03T03:45:55;6.28;;;3.55;;
54745;SDS011;40640;48.130;11.356;2023-04-03T03:50:00;7.22;;;3.00;;
54745;SDS011;40640;48.130;11.356;2023-04-03T03:54:03;4.70;;;3.28;;
54745;SDS011;40640;48.130;11.356;2023-04-03T03:58:09;7.50;;;3.63;;
54745;SDS011;40640;48.130;11.356;2023-04-03T04:02:12;8.60;;;3.58;;
54745;SDS011;40640;48.130;11.356;2023-04-03T04:06:16;7.60;;;3.25;;
54745;SDS011;40640;48.130;11.356;2023-04-03T04:10:19;5.68;;;3.45;;
54745;SDS011;40640;48.130;11.356;2023-04-03T04:14:24;7.05;;;3.42;;
54745;SDS011;40640;48.130;11.356;2023-04-03T04:18:28;7.07;;;3.25;;
54745;SDS011;40640;48.130;11.356;2023-04-03T04:22:31;4.35;;;3.47;;
54745;SDS011;40640;48.130;11.356;2023-04-03T04:26:34;8.50;;;3.90;;
54745;SDS011;40640;48.130;11.356;2023-04-03T04:30:39;5.18;;;3.55;;
54745;SDS011;40640;48.130;11.356;2023-04-03T04:34:43;6.30;;;3.78;;
54745;SDS011;40640;48.130;11.356;2023-04-03T04:38:45;6.55;;;3.10;;
54745;SDS011;40640;48.130;11.356;2023-04-03T04:42:49;4.75;;;3.28;;
54745;SDS011;40640;48.130;11.356;2023-04-03T04:46:54;5.15;;;3.40;;
54745;SDS011;40640;48.130;11.356;2023-04-03T04:50:56;5.78;;;3.38;;
54745;SDS011;40640;48.130;11.356;2023-04-03T04:54:59;6.70;;;3.42;;
54745;SDS011;40640;48.130;11.356;2023-04-03T04:59:03;4.93;;;3.53;;
54745;SDS011;40640;48.130;11.356;2023-04-03T05:03:08;9.80;;;3.75;;
54745;SDS011;40640;48.130;11.356;2023-04-03T05:07:11;5.50;;;3.75;;
54745;SDS011;40640;48.130;11.356;2023-04-03T05:11:14;6.18;;;3.70;;
54745;SDS011;40640;48.130;11.356;2023-04-03T05:15:19;6.22;;;3.50;;
54745;SDS011;40640;48.130;11.356;2023-04-03T05:19:23;5.65;;;3.28;;
54745;SDS011;40640;48.130;11.356;2023-04-03T05:23:26;6.22;;;3.65;;
54745;SDS011;40640;48.130;11.356;2023-04-03T05:27:32;8.50;;;3.60;;
54745;SDS011;40640;48.130;11.356;2023-04-03T05:31:35;4.82;;;3.38;;
54745;SDS011;40640;48.130;11.356;2023-04-03T05:35:42;9.60;;;3.90;;
54745;SDS011;40640;48.130;11.356;2023-04-03T05:39:51;7.40;;;3.88;;
54745;SDS011;40640;48.130;11.356;2023-04-03T05:43:55;6.45;;;3.80;;
54745;SDS011;40640;48.130;11.356;2023-04-03T05:47:59;6.43;;;4.10;;
54745;SDS011;40640;48.130;11.356;2023-04-03T05:52:05;5.78;;;3.45;;
54745;SDS011;40640;48.130;11.356;2023-04-03T05:56:08;7.10;;;4.10;;
54745;SDS011;40640;48.130;11.356;2023-04-03T06:00:14;5.35;;;3.63;;
54745;SDS011;40640;48.130;11.356;2023-04-03T06:04:26;10.52;;;4.00;;
54745;SDS011;40640;48.130;11.356;2023-04-03T06:08:30;5.20;;;3.70;;
54745;SDS011;40640;48.130;11.356;2023-04-03T06:12:34;6.85;;;3.75;;
54745;SDS011;40640;48.130;11.356;2023-04-03T06:16:37;6.35;;;3.75;;
54745;SDS011;40640;48.130;11.356;2023-04-03T06:20:41;5.70;;;3.67;;
54745;SDS011;40640;48.130;11.356;2023-04-03T06:24:45;5.00;;;3.42;;
54745;SDS011;40640;48.130;11.356;2023-04-03T06:28:48;5.80;;;3.63;;
54745;SDS011;40640;48.130;11.356;2023-04-03T06:32:51;7.78;;;3.70;;
54745;SDS011;40640;48.130;11.356;2023-04-03T06:36:54;5.75;;;3.90;;
54745;SDS011;40640;48.130;11.356;2023-04-03T06:40:58;7.18;;;3.67;;
54745;SDS011;40640;48.130;11.356;2023-04-03T06:45:01;7.53;;;3.72;;
54745;SDS011;40640;48.130;11.356;2023-04-03T06:49:04;6.43;;;3.83;;
54745;SDS011;40640;48.130;11.356;2023-04-03T06:53:09;4.38;;;3.47;;
54745;SDS011;40640;48.130;11.356;2023-04-03T06:57:14;7.57;;;4.07;;
54745;SDS011;40640;48.130;11.356;2023-04-03T07:01:17;4.03;;;3.20;;
54745;SDS011;40640;48.130;11.356;2023-04-03T07:05:21;5.40;;;3.75;;
54745;SDS011;40640;48.130;11.356;2023-04-03T07:09:24;8.35;;;3.58;;
54745;SDS011;40640;48.130;11.356;2023-04-03T07:13:28;7.35;;;3.42;;
54745;SDS011;40640;48.130;11.356;2023-04-03T07:17:31;8.05;;;4.55;;
54745;SDS011;40640;48.130;11.356;2023-04-03T07:21:34;4.45;;;3.03;;
54745;SDS011;40640;48.130;11.356;2023-04-03T07:25:40;6.75;;;4.18;;
54745;SDS011;40640;48.130;11.356;2023-04-03T07:29:46;5.53;;;3.70;;
54745;SDS011;40640;48.130;11.356;2023-04-03T07:33:49;4.38;;;3.42;;
54745;SDS011;40640;48.130;11.356;2023-04-03T07:37:52;6.28;;;3.85;;
54745;SDS011;40640;48.130;11.356;2023-04-03T07:41:55;4.90;;;3.63;;
54745;SDS011;40640;48.130;11.356;2023-04-03T07:45:59;7.97;;;3.80;;
54745;SDS011;40640;48.130;11.356;2023-04-03T07:50:02;6.82;;;3.40;;
54745;SDS011;40640;48.130;11.356;2023-04-03T07:54:06;12.75;;;4.07;;
54745;SDS011;40640;48.130;11.356;2023-04-03T07:58:10;7.40;;;3.97;;
54745;SDS011;40640;48.130;11.356;2023-04-03T08:02:14;6.75;;;3.78;;
54745;SDS011;40640;48.130;11.356;2023-04-03T08:06:17;7.93;;;3.75;;
54745;SDS011;40640;48.130;11.356;2023-04-03T08:10:33;6.00;;;3.78;;
54745;SDS011;40640;48.130;11.356;2023-04-03T08:14:36;5.93;;;3.63;;
54745;SDS011;40640;48.130;11.356;2023-04-03T08:18:41;8.55;;;4.25;;
54745;SDS011;40640;48.130;11.356;2023-04-03T08:22:43;5.68;;;4.10;;
54745;SDS011;40640;48.130;11.356;2023-04-03T08:26:46;7.63;;;3.80;;
54745;SDS011;40640;48.130;11.356;2023-04-03T08:30:49;7.32;;;3.85;;
54745;SDS011;40640;48.130;11.356;2023-04-03T08:34:53;6.82;;;3.95;;
54745;SDS011;40640;48.130;11.356;2023-04-03T08:38:56;18.73;;;4.25;;
54745;SDS011;40640;48.130;11.356;2023-04-03T08:43:03;11.43;;;4.43;;
54745;SDS011;40640;48.130;11.356;2023-04-03T08:47:20;8.10;;;4.50;;
54745;SDS011;40640;48.130;11.356;2023-04-03T08:51:28;7.70;;;4.30;;
54745;SDS011;40640;48.130;11.356;2023-04-03T08:55:33;10.88;;;4.07;;
54745;SDS011;40640;48.130;11.356;2023-04-03T08:59:39;9.77;;;4.47;;
54745;SDS011;40640;48.130;11.356;2023-04-03T09:03:43;6.78;;;3.97;;
54745;SDS011;40640;48.130;11.356;2023-04-03T09:07:49;8.93;;;5.47;;
54745;SDS011;40640;48.130;11.356;2023-04-03T09:12:00;6.18;;;3.85;;
54745;SDS011;40640;48.130;11.356;2023-04-03T09:16:14;7.40;;;3.63;;
54745;SDS011;40640;48.130;11.356;2023-04-03T09:20:24;14.82;;;4.13;;
54745;SDS011;40640;48.130;11.356;2023-04-03T09:24:34;8.02;;;4.20;;
54745;SDS011;40640;48.130;11.356;2023-04-03T09:28:39;6.22;;;3.90;;
54745;SDS011;40640;48.130;11.356;2023-04-03T09:32:50;5.57;;;3.60;;
54745;SDS011;40640;48.130;11.356;2023-04-03T09:36:55;5.47;;;3.58;;
54745;SDS011;40640;48.130;11.356;2023-04-03T09:41:04;6.38;;;3.22;;
54745;SDS011;40640;48.130;11.356;2023-04-03T09:45:18;12.60;;;3.28;;
54745;SDS011;40640;48.130;11.356;2023-04-03T09:49:25;7.93;;;3.75;;
54745;SDS011;40640;48.130;11.356;2023-04-03T09:53:30;6.97;;;2.78;;
54745;SDS011;40640;48.130;11.356;2023-04-03T09:57:37;4.82;;;3.00;;
54745;SDS011;40640;48.130;11.356;2023-04-03T10:01:41;4.72;;;2.92;;
54745;SDS011;40640;48.130;11.356;2023-04-03T10:05:47;7.90;;;3.83;;
54745;SDS011;40640;48.130;11.356;2023-04-03T10:09:54;9.25;;;3.28;;
54745;SDS011;40640;48.130;11.356;2023-04-03T10:13:59;6.97;;;3.50;;
54745;SDS011;40640;48.130;11.356;2023-04-03T10:18:05;7.22;;;3.30;;
54745;SDS011;40640;48.130;11.356;2023-04-03T10:22:27;7.25;;;3.55;;
54745;SDS011;40640;48.130;11.356;2023-04-03T10:26:41;9.57;;;3.83;;
54745;SDS011;40640;48.130;11.356;2023-04-03T10:30:52;8.82;;;3.65;;
54745;SDS011;40640;48.130;11.356;2023-04-03T10:35:02;8.85;;;3.80;;
54745;SDS011;40640;48.130;11.356;2023-04-03T10:39:17;4.80;;;3.63;;
54745;SDS011;40640;48.130;11.356;2023-04-03T10:43:29;7.82;;;3.90;;
54745;SDS011;40640;48.130;11.356;2023-04-03T10:47:40;9.13;;;3.80;;
54745;SDS011;40640;48.130;11.356;2023-04-03T10:51:51;7.45;;;3.88;;
54745;SDS011;40640;48.130;11.356;2023-04-03T10:56:02;9.90;;;3.70;;
54745;SDS011;40640;48.130;11.356;2023-04-03T11:00:14;6.57;;;3.33;;
54745;SDS011;40640;48.130;11.356;2023-04-03T11:04:22;7.03;;;3.47;;
54745;SDS011;40640;48.130;11.356;2023-04-03T11:08:29;8.73;;;3.28;;
54745;SDS011;40640;48.130;11.356;2023-04-03T11:12:38;7.30;;;2.90;;
54745;SDS011;40640;48.130;11.356;2023-04-03T11:16:58;5.68;;;2.75;;
54745;SDS011;40640;48.130;11.356;2023-04-03T11:21:09;5.18;;;2.70;;
54745;SDS011;40640;48.130;11.356;2023-04-03T11:25:18;7.82;;;2.60;;
54745;SDS011;40640;48.130;11.356;2023-04-03T11:29:24;6.45;;;2.60;;
54745;SDS011;40640;48.130;11.356;2023-04-03T11:33:37;9.20;;;3.33;;
54745;SDS011;40640;48.130;11.356;2023-04-03T11:37:48;3.10;;;1.90;;
54745;SDS011;40640;48.130;11.356;2023-04-03T11:41:53;5.80;;;2.70;;
54745;SDS011;40640;48.130;11.356;2023-04-03T11:46:11;3.90;;;2.53;;
54745;SDS011;40640;48.130;11.356;2023-04-03T11:54:47;4.10;;;2.15;;
54745;SDS011;40640;48.130;11.356;2023-04-03T12:03:30;4.95;;;2.40;;
54745;SDS011;40640;48.130;11.356;2023-04-03T12:08:16;10.60;;;2.75;;
54745;SDS011;40640;48.130;11.356;2023-04-03T12:12:32;5.07;;;2.00;;
54745;SDS011;40640;48.130;11.356;2023-04-03T12:16:42;5.05;;;1.85;;
54745;SDS011;40640;48.130;11.356;2023-04-03T12:20:53;4.07;;;1.80;;
54745;SDS011;40640;48.130;11.356;2023-04-03T12:25:00;4.13;;;1.48;;
54745;SDS011;40640;48.130;11.356;2023-04-03T12:29:51;4.68;;;1.65;;
54745;SDS011;40640;48.130;11.356;2023-04-03T12:34:01;3.85;;;1.92;;
54745;SDS011;40640;48.130;11.356;2023-04-03T12:38:20;3.72;;;2.10;;
54745;SDS011;40640;48.130;11.356;2023-04-03T12:42:42;3.78;;;2.20;;
54745;SDS011;40640;48.130;11.356;2023-04-03T12:47:07;2.30;;;1.63;;
54745;SDS011;40640;48.130;11.356;2023-04-03T12:51:22;6.10;;;1.95;;
54745;SDS011;40640;48.130;11.356;2023-04-03T12:55:32;7.40;;;2.13;;
54745;SDS011;40640;48.130;11.356;2023-04-03T12:59:36;4.65;;;1.90;;
54745;SDS011;40640;48.130;11.356;2023-04-03T13:03:42;3.95;;;1.95;;
54745;SDS011;40640;48.130;11.356;2023-04-03T13:07:48;2.95;;;1.98;;
54745;SDS011;40640;48.130;11.356;2023-04-03T13:11:55;5.17;;;2.00;;
54745;SDS011;40640;48.130;11.356;2023-04-03T13:16:07;4.18;;;2.28;;
54745;SDS011;40640;48.130;11.356;2023-04-03T13:20:14;5.30;;;1.85;;
54745;SDS011;40640;48.130;11.356;2023-04-03T13:24:21;6.63;;;2.80;;
54745;SDS011;40640;48.130;11.356;2023-04-03T13:28:24;5.38;;;1.63;;
54745;SDS011;40640;48.130;11.356;2023-04-03T13:32:28;4.38;;;1.67;;
54745;SDS011;40640;48.130;11.356;2023-04-03T13:36:35;2.40;;;1.77;;
54745;SDS011;40640;48.130;11.356;2023-04-03T13:40:46;6.20;;;2.10;;
54745;SDS011;40640;48.130;11.356;2023-04-03T13:49:29;4.95;;;2.10;;
54745;SDS011;40640;48.130;11.356;2023-04-03T13:53:41;3.13;;;1.58;;
54745;SDS011;40640;48.130;11.356;2023-04-03T13:57:50;4.40;;;1.70;;
54745;SDS011;40640;48.130;11.356;2023-04-03T14:01:57;4.18;;;2.00;;
54745;SDS011;40640;48.130;11.356;2023-04-03T14:06:15;3.83;;;1.75;;
54745;SDS011;40640;48.130;11.356;2023-04-03T14:10:20;5.63;;;1.88;;
54745;SDS011;40640;48.130;11.356;2023-04-03T14:14:24;10.32;;;2.17;;
54745;SDS011;40640;48.130;11.356;2023-04-03T14:22:32;7.57;;;2.08;;
54745;SDS011;40640;48.130;11.356;2023-04-03T14:26:37;4.15;;;1.77;;
54745;SDS011;40640;48.130;11.356;2023-04-03T14:30:40;3.63;;;2.03;;
54745;SDS011;40640;48.130;11.356;2023-04-03T14:34:43;4.97;;;1.98;;
54745;SDS011;40640;48.130;11.356;2023-04-03T14:38:47;4.65;;;1.80;;
54745;SDS011;40640;48.130;11.356;2023-04-03T14:42:53;4.90;;;2.42;;
54745;SDS011;40640;48.130;11.356;2023-04-03T14:46:58;3.53;;;1.42;;
54745;SDS011;40640;48.130;11.356;2023-04-03T14:51:02;2.80;;;1.67;;
54745;SDS011;40640;48.130;11.356;2023-04-03T14:55:06;2.70;;;1.70;;
54745;SDS011;40640;48.130;11.356;2023-04-03T14:59:12;3.03;;;2.08;;
54745;SDS011;40640;48.130;11.356;2023-04-03T15:03:20;4.40;;;1.88;;
54745;SDS011;40640;48.130;11.356;2023-04-03T15:07:26;3.58;;;1.83;;
54745;SDS011;40640;48.130;11.356;2023-04-03T15:11:31;4.72;;;1.58;;
54745;SDS011;40640;48.130;11.356;2023-04-03T15:15:36;2.13;;;1.27;;
54745;SDS011;40640;48.130;11.356;2023-04-03T15:19:39;4.60;;;1.67;;
54745;SDS011;40640;48.130;11.356;2023-04-03T15:23:42;4.47;;;1.60;;
54745;SDS011;40640;48.130;11.356;2023-04-03T15:27:45;3.22;;;1.70;;
54745;SDS011;40640;48.130;11.356;2023-04-03T15:31:49;2.80;;;1.40;;
54745;SDS011;40640;48.130;11.356;2023-04-03T15:35:55;2.78;;;1.48;;
54745;SDS011;40640;48.130;11.356;2023-04-03T15:40:08;2.67;;;1.40;;
54745;SDS011;40640;48.130;11.356;2023-04-03T15:44:11;3.90;;;1.40;;
54745;SDS011;40640;48.130;11.356;2023-04-03T15:48:16;5.32;;;1.50;;
54745;SDS011;40640;48.130;11.356;2023-04-03T15:52:19;2.75;;;1.58;;
54745;SDS011;40640;48.130;11.356;2023-04-03T15:56:22;3.38;;;2.08;;
54745;SDS011;40640;48.130;11.356;2023-04-03T16:00:25;3.90;;;1.80;;
54745;SDS011;40640;48.130;11.356;2023-04-03T16:04:30;2.90;;;1.48;;
54745;SDS011;40640;48.130;11.356;2023-04-03T16:08:33;3.75;;;1.27;;
54745;SDS011;40640;48.130;11.356;2023-04-03T16:12:37;5.97;;;1.60;;
54745;SDS011;40640;48.130;11.356;2023-04-03T16:16:40;3.15;;;1.58;;
54745;SDS011;40640;48.130;11.356;2023-04-03T16:20:44;2.13;;;1.42;;
54745;SDS011;40640;48.130;11.356;2023-04-03T16:24:50;2.67;;;1.52;;
54745;SDS011;40640;48.130;11.356;2023-04-03T16:28:54;2.38;;;1.38;;
54745;SDS011;40640;48.130;11.356;2023-04-03T16:32:56;9.00;;;1.92;;
54745;SDS011;40640;48.130;11.356;2023-04-03T16:37:01;3.88;;;1.55;;
54745;SDS011;40640;48.130;11.356;2023-04-03T16:41:04;3.00;;;1.30;;
54745;SDS011;40640;48.130;11.356;2023-04-03T16:45:07;6.63;;;2.10;;
54745;SDS011;40640;48.130;11.356;2023-04-03T16:49:10;4.75;;;1.98;;
54745;SDS011;40640;48.130;11.356;2023-04-03T16:53:15;4.30;;;1.65;;
54745;SDS011;40640;48.130;11.356;2023-04-03T16:57:18;4.05;;;1.95;;
54745;SDS011;40640;48.130;11.356;2023-04-03T17:01:22;3.45;;;1.48;;
54745;SDS011;40640;48.130;11.356;2023-04-03T17:05:25;4.45;;;1.58;;
54745;SDS011;40640;48.130;11.356;2023-04-03T17:09:29;3.03;;;1.50;;
54745;SDS011;40640;48.130;11.356;2023-04-03T17:13:32;4.32;;;1.98;;
54745;SDS011;40640;48.130;11.356;2023-04-03T17:17:35;5.18;;;1.50;;
54745;SDS011;40640;48.130;11.356;2023-04-03T17:21:38;5.32;;;1.95;;
54745;SDS011;40640;48.130;11.356;2023-04-03T17:25:43;3.45;;;1.60;;
54745;SDS011;40640;48.130;11.356;2023-04-03T17:29:46;4.70;;;1.92;;
54745;SDS011;40640;48.130;11.356;2023-04-03T17:33:48;5.10;;;1.92;;
54745;SDS011;40640;48.130;11.356;2023-04-03T17:37:51;3.95;;;1.60;;
54745;SDS011;40640;48.130;11.356;2023-04-03T17:41:55;4.88;;;1.83;;
54745;SDS011;40640;48.130;11.356;2023-04-03T17:45:59;2.20;;;1.50;;
54745;SDS011;40640;48.130;11.356;2023-04-03T17:50:05;4.03;;;1.67;;
54745;SDS011;40640;48.130;11.356;2023-04-03T17:54:08;2.53;;;1.50;;
54745;SDS011;40640;48.130;11.356;2023-04-03T17:58:13;2.63;;;1.58;;
54745;SDS011;40640;48.130;11.356;2023-04-03T18:02:16;5.97;;;1.73;;
54745;SDS011;40640;48.130;11.356;2023-04-03T18:06:20;10.02;;;2.17;;
54745;SDS011;40640;48.130;11.356;2023-04-03T18:14:30;4.13;;;2.30;;
54745;SDS011;40640;48.130;11.356;2023-04-03T18:18:35;4.32;;;2.10;;
54745;SDS011;40640;48.130;11.356;2023-04-03T18:22:38;3.17;;;1.92;;
54745;SDS011;40640;48.130;11.356;2023-04-03T18:26:41;4.18;;;2.00;;
54745;SDS011;40640;48.130;11.356;2023-04-03T18:30:48;5.57;;;2.33;;
54745;SDS011;40640;48.130;11.356;2023-04-03T18:34:51;6.00;;;2.30;;
54745;SDS011;40640;48.130;11.356;2023-04-03T18:38:54;2.95;;;2.00;;
54745;SDS011;40640;48.130;11.356;2023-04-03T18:42:57;4.55;;;2.15;;
54745;SDS011;40640;48.130;11.356;2023-04-03T18:47:03;3.55;;;1.77;;
54745;SDS011;40640;48.130;11.356;2023-04-03T18:51:06;10.20;;;2.03;;
54745;SDS011;40640;48.130;11.356;2023-04-03T18:55:09;3.85;;;1.80;;
54745;SDS011;40640;48.130;11.356;2023-04-03T18:59:14;3.75;;;1.88;;
54745;SDS011;40640;48.130;11.356;2023-04-03T19:03:18;5.30;;;1.85;;
54745;SDS011;40640;48.130;11.356;2023-04-03T19:07:21;4.32;;;2.30;;
54745;SDS011;40640;48.130;11.356;2023-04-03T19:11:24;4.75;;;2.03;;
54745;SDS011;40640;48.130;11.356;2023-04-03T19:15:30;7.20;;;1.98;;
54745;SDS011;40640;48.130;11.356;2023-04-03T19:19:34;3.50;;;1.92;;
54745;SDS011;40640;48.130;11.356;2023-04-03T19:23:37;4.85;;;1.80;;
54745;SDS011;40640;48.130;11.356;2023-04-03T19:27:43;9.57;;;1.48;;
54745;SDS011;40640;48.130;11.356;2023-04-03T19:31:45;5.70;;;1.65;;
54745;SDS011;40640;48.130;11.356;2023-04-03T19:35:49;5.90;;;1.67;;
54745;SDS011;40640;48.130;11.356;2023-04-03T19:39:52;3.85;;;1.70;;
54745;SDS011;40640;48.130;11.356;2023-04-03T19:43:55;7.05;;;1.92;;
54745;SDS011;40640;48.130;11.356;2023-04-03T19:47:59;4.38;;;1.95;;
54745;SDS011;40640;48.130;11.356;2023-04-03T19:52:04;5.72;;;2.05;;
54745;SDS011;40640;48.130;11.356;2023-04-03T19:56:06;3.33;;;1.80;;
54745;SDS011;40640;48.130;11.356;2023-04-03T20:00:10;6.13;;;2.45;;
54745;SDS011;40640;48.130;11.356;2023-04-03T20:04:14;5.38;;;2.47;;
54745;SDS011;40640;48.130;11.356;2023-04-03T20:08:18;5.13;;;2.22;;
54745;SDS011;40640;48.130;11.356;2023-04-03T20:12:22;4.97;;;1.85;;
54745;SDS011;40640;48.130;11.356;2023-04-03T20:16:24;5.30;;;2.05;;
54745;SDS011;40640;48.130;11.356;2023-04-03T20:20:28;9.38;;;2.05;;
54745;SDS011;40640;48.130;11.356;2023-04-03T20:24:33;6.28;;;2.47;;
54745;SDS011;40640;48.130;11.356;2023-04-03T20:28:35;5.43;;;2.10;;
54745;SDS011;40640;48.130;11.356;2023-04-03T20:32:39;6.03;;;2.08;;
54745;SDS011;40640;48.130;11.356;2023-04-03T20:36:42;7.05;;;2.67;;
54745;SDS011;40640;48.130;11.356;2023-04-03T20:40:51;4.25;;;2.20;;
54745;SDS011;40640;48.130;11.356;2023-04-03T20:44:54;5.38;;;2.20;;
54745;SDS011;40640;48.130;11.356;2023-04-03T20:48:57;3.78;;;2.20;;
54745;SDS011;40640;48.130;11.356;2023-04-03T20:53:01;3.22;;;2.42;;
54745;SDS011;40640;48.130;11.356;2023-04-03T20:57:05;4.53;;;2.33;;
54745;SDS011;40640;48.130;11.356;2023-04-03T21:01:12;4.05;;;2.40;;
54745;SDS011;40640;48.130;11.356;2023-04-03T21:05:17;4.07;;;2.25;;
54745;SDS011;40640;48.130;11.356;2023-04-03T21:23:04;5.05;;;2.40;;
54745;SDS011;40640;48.130;11.356;2023-04-03T21:27:07;6.13;;;2.42;;
54745;SDS011;40640;48.130;11.356;2023-04-03T21:31:10;7.20;;;2.45;;
54745;SDS011;40640;48.130;11.356;2023-04-03T21:35:16;5.65;;;2.40;;
54745;SDS011;40640;48.130;11.356;2023-04-03T21:39:19;4.40;;;2.45;;
54745;SDS011;40640;48.130;11.356;2023-04-03T21:43:23;5.05;;;2.40;;
54745;SDS011;40640;48.130;11.356;2023-04-03T21:47:26;3.20;;;1.88;;
54745;SDS011;40640;48.130;11.356;2023-04-03T21:51:31;8.50;;;2.55;;
54745;SDS011;40640;48.130;11.356;2023-04-03T21:55:34;5.57;;;2.20;;
54745;SDS011;40640;48.130;11.356;2023-04-03T21:59:36;2.88;;;1.77;;
54745;SDS011;40640;48.130;11.356;2023-04-03T22:03:40;3.95;;;2.08;;
54745;SDS011;40640;48.130;11.356;2023-04-03T22:07:45;7.05;;;2.42;;
54745;SDS011;40640;48.130;11.356;2023-04-03T22:11:48;3.58;;;2.25;;
54745;SDS011;40640;48.130;11.356;2023-04-03T22:15:51;5.75;;;2.22;;
54745;SDS011;40640;48.130;11.356;2023-04-03T22:19:54;6.38;;;2.10;;
54745;SDS011;40640;48.130;11.356;2023-04-03T22:23:59;5.57;;;2.20;;
54745;SDS011;40640;48.130;11.356;2023-04-03T22:28:02;5.00;;;2.17;;
54745;SDS011;40640;48.130;11.356;2023-04-03T22:32:05;3.58;;;1.88;;
54745;SDS011;40640;48.130;11.356;2023-04-03T22:36:08;4.30;;;2.20;;
54745;SDS011;40640;48.130;11.356;2023-04-03T22:40:13;5.28;;;2.42;;
54745;SDS011;40640;48.130;11.356;2023-04-03T22:44:16;6.60;;;2.42;;
54745;SDS011;40640;48.130;11.356;2023-04-03T22:48:19;10.23;;;2.28;;
54745;SDS011;40640;48.130;11.356;2023-04-03T22:52:23;4.45;;;2.40;;
54745;SDS011;40640;48.130;11.356;2023-04-03T22:56:27;5.68;;;2.55;;
54745;SDS011;40640;48.130;11.356;2023-04-03T23:00:30;5.55;;;2.33;;
54745;SDS011;40640;48.130;11.356;2023-04-03T23:04:33;4.03;;;2.25;;
54745;SDS011;40640;48.130;11.356;2023-04-03T23:08:36;7.22;;;2.70;;
54745;SDS011;40640;48.130;11.356;2023-04-03T23:12:42;8.10;;;2.80;;
54745;SDS011;40640;48.130;11.356;2023-04-03T23:16:45;3.88;;;2.10;;
54745;SDS011;40640;48.130;11.356;2023-04-03T23:20:48;5.95;;;2.88;;
54745;SDS011;40640;48.130;11.356;2023-04-03T23:24:52;4.13;;;2.22;;
54745;SDS011;40640;48.130;11.356;2023-04-03T23:28:56;3.92;;;2.38;;
54745;SDS011;40640;48.130;11.356;2023-04-03T23:32:59;4.50;;;2.65;;
54745;SDS011;40640;48.130;11.356;2023-04-03T23:37:02;4.05;;;2.28;;
54745;SDS011;40640;48.130;11.356;2023-04-03T23:41:05;4.63;;;2.60;;
54745;SDS011;40640;48.130;11.356;2023-04-03T23:45:09;6.15;;;2.53;;
54745;SDS011;40640;48.130;11.356;2023-04-03T23:49:12;5.63;;;2.42;;
54745;SDS011;40640;48.130;11.356;2023-04-03T23:53:15;5.38;;;2.65;;
54745;SDS011;40640;48.130;11.356;2023-04-03T23:57:18;5.45;;;2.60;;
